sensor_id;sensor_type;location;lat;lon;timestamp;temperature;humidity
43183;DHT22;28802;38.578;-0.066;2022-09-13T00:00:54;28.20;99.90
43183;DHT22;28802;38.578;-0.066;2022-09-13T00:03:20;28.20;99.90
43183;DHT22;28802;38.578;-0.066;2022-09-13T00:05:47;28.20;99.90
43183;DHT22;28802;38.578;-0.066;2022-09-13T00:08:13;28.20;99.90
43183;DHT22;28802;38.578;-0.066;2022-09-13T00:10:40;28.10;99.90
43183;DHT22;28802;38.578;-0.066;2022-09-13T00:13:07;28.10;99.90
43183;DHT22;28802;38.578;-0.066;2022-09-13T00:15:34;28.00;99.90
43183;DHT22;28802;38.578;-0.066;2022-09-13T00:18:01;27.80;99.90
43183;DHT22;28802;38.578;-0.066;2022-09-13T00:20:26;27.70;99.90
43183;DHT22;28802;38.578;-0.066;2022-09-13T00:22:53;27.70;99.90
43183;DHT22;28802;38.578;-0.066;2022-09-13T00:25:19;27.70;99.90
43183;DHT22;28802;38.578;-0.066;2022-09-13T00:27:45;27.70;99.90
43183;DHT22;28802;38.578;-0.066;2022-09-13T00:30:11;27.80;99.90
43183;DHT22;28802;38.578;-0.066;2022-09-13T00:32:38;27.80;99.90
43183;DHT22;28802;38.578;-0.066;2022-09-13T00:35:05;27.80;99.90
43183;DHT22;28802;38.578;-0.066;2022-09-13T00:37:31;27.70;99.90
43183;DHT22;28802;38.578;-0.066;2022-09-13T00:40:02;27.70;99.90
43183;DHT22;28802;38.578;-0.066;2022-09-13T00:42:30;27.90;99.90
43183;DHT22;28802;38.578;-0.066;2022-09-13T00:50:12;28.00;99.90
43183;DHT22;28802;38.578;-0.066;2022-09-13T00:52:39;28.00;99.90
43183;DHT22;28802;38.578;-0.066;2022-09-13T00:55:23;27.90;99.90
43183;DHT22;28802;38.578;-0.066;2022-09-13T00:57:51;27.90;99.90
43183;DHT22;28802;38.578;-0.066;2022-09-13T01:00:18;27.90;99.90
43183;DHT22;28802;38.578;-0.066;2022-09-13T01:02:57;27.80;99.90
43183;DHT22;28802;38.578;-0.066;2022-09-13T01:05:29;27.90;99.90
43183;DHT22;28802;38.578;-0.066;2022-09-13T01:07:57;27.80;99.90
43183;DHT22;28802;38.578;-0.066;2022-09-13T01:10:25;27.60;99.90
43183;DHT22;28802;38.578;-0.066;2022-09-13T01:13:00;27.40;99.90
43183;DHT22;28802;38.578;-0.066;2022-09-13T01:15:29;27.30;99.90
43183;DHT22;28802;38.578;-0.066;2022-09-13T01:17:55;27.30;99.90
43183;DHT22;28802;38.578;-0.066;2022-09-13T01:20:31;27.40;99.90
43183;DHT22;28802;38.578;-0.066;2022-09-13T01:28:53;27.70;99.90
43183;DHT22;28802;38.578;-0.066;2022-09-13T01:34:07;27.80;99.90
43183;DHT22;28802;38.578;-0.066;2022-09-13T01:39:05;27.90;99.90
43183;DHT22;28802;38.578;-0.066;2022-09-13T01:44:28;27.70;99.90
43183;DHT22;28802;38.578;-0.066;2022-09-13T01:47:26;27.50;99.90
43183;DHT22;28802;38.578;-0.066;2022-09-13T01:52:53;27.60;99.90
43183;DHT22;28802;38.578;-0.066;2022-09-13T01:58:06;27.50;99.90
43183;DHT22;28802;38.578;-0.066;2022-09-13T02:00:40;27.40;99.90
43183;DHT22;28802;38.578;-0.066;2022-09-13T02:03:42;27.40;99.90
43183;DHT22;28802;38.578;-0.066;2022-09-13T02:06:14;27.40;99.90
43183;DHT22;28802;38.578;-0.066;2022-09-13T02:08:50;27.40;99.90
43183;DHT22;28802;38.578;-0.066;2022-09-13T02:11:17;27.30;99.90
43183;DHT22;28802;38.578;-0.066;2022-09-13T02:14:16;27.40;99.90
43183;DHT22;28802;38.578;-0.066;2022-09-13T02:17:00;27.30;99.90
43183;DHT22;28802;38.578;-0.066;2022-09-13T02:19:39;27.40;99.90
43183;DHT22;28802;38.578;-0.066;2022-09-13T02:22:07;27.50;99.90
43183;DHT22;28802;38.578;-0.066;2022-09-13T02:24:41;27.50;99.90
43183;DHT22;28802;38.578;-0.066;2022-09-13T02:27:17;27.50;99.90
43183;DHT22;28802;38.578;-0.066;2022-09-13T02:29:46;27.70;99.90
43183;DHT22;28802;38.578;-0.066;2022-09-13T02:32:28;27.70;99.90
43183;DHT22;28802;38.578;-0.066;2022-09-13T02:35:12;27.70;99.90
43183;DHT22;28802;38.578;-0.066;2022-09-13T02:37:41;27.90;99.90
43183;DHT22;28802;38.578;-0.066;2022-09-13T02:40:15;27.90;99.90
43183;DHT22;28802;38.578;-0.066;2022-09-13T02:43:02;27.80;99.90
43183;DHT22;28802;38.578;-0.066;2022-09-13T02:45:32;27.60;99.90
43183;DHT22;28802;38.578;-0.066;2022-09-13T02:48:05;27.50;99.90
43183;DHT22;28802;38.578;-0.066;2022-09-13T02:50:55;27.40;99.90
43183;DHT22;28802;38.578;-0.066;2022-09-13T02:53:43;27.30;99.90
43183;DHT22;28802;38.578;-0.066;2022-09-13T03:04:27;27.40;99.90
43183;DHT22;28802;38.578;-0.066;2022-09-13T03:06:53;27.30;99.90
43183;DHT22;28802;38.578;-0.066;2022-09-13T03:09:19;27.30;99.90
43183;DHT22;28802;38.578;-0.066;2022-09-13T03:31:17;27.00;99.90
43183;DHT22;28802;38.578;-0.066;2022-09-13T03:33:56;26.90;99.90
43183;DHT22;28802;38.578;-0.066;2022-09-13T03:36:32;26.80;99.90
43183;DHT22;28802;38.578;-0.066;2022-09-13T03:39:12;26.80;99.90
43183;DHT22;28802;38.578;-0.066;2022-09-13T03:41:44;26.80;99.90
43183;DHT22;28802;38.578;-0.066;2022-09-13T03:44:15;26.80;99.90
43183;DHT22;28802;38.578;-0.066;2022-09-13T03:46:47;26.80;99.90
43183;DHT22;28802;38.578;-0.066;2022-09-13T03:49:15;26.70;99.90
43183;DHT22;28802;38.578;-0.066;2022-09-13T03:51:44;26.80;99.90
43183;DHT22;28802;38.578;-0.066;2022-09-13T03:54:18;26.80;99.90
43183;DHT22;28802;38.578;-0.066;2022-09-13T03:57:14;27.00;99.90
43183;DHT22;28802;38.578;-0.066;2022-09-13T03:59:48;27.20;99.90
43183;DHT22;28802;38.578;-0.066;2022-09-13T04:02:15;27.20;99.90
43183;DHT22;28802;38.578;-0.066;2022-09-13T04:04:42;27.10;99.90
43183;DHT22;28802;38.578;-0.066;2022-09-13T04:07:10;27.00;99.90
43183;DHT22;28802;38.578;-0.066;2022-09-13T04:09:36;27.00;99.90
43183;DHT22;28802;38.578;-0.066;2022-09-13T04:12:02;27.00;99.90
43183;DHT22;28802;38.578;-0.066;2022-09-13T04:14:28;27.10;99.90
43183;DHT22;28802;38.578;-0.066;2022-09-13T04:16:56;27.10;99.90
43183;DHT22;28802;38.578;-0.066;2022-09-13T04:19:23;27.20;99.90
43183;DHT22;28802;38.578;-0.066;2022-09-13T04:21:50;27.20;99.90
43183;DHT22;28802;38.578;-0.066;2022-09-13T04:24:17;27.10;99.90
43183;DHT22;28802;38.578;-0.066;2022-09-13T04:26:47;27.10;99.90
43183;DHT22;28802;38.578;-0.066;2022-09-13T04:29:14;27.20;99.90
43183;DHT22;28802;38.578;-0.066;2022-09-13T04:31:40;27.10;99.90
43183;DHT22;28802;38.578;-0.066;2022-09-13T04:34:05;27.10;99.90
43183;DHT22;28802;38.578;-0.066;2022-09-13T04:36:32;27.20;99.90
43183;DHT22;28802;38.578;-0.066;2022-09-13T04:38:58;27.20;99.90
43183;DHT22;28802;38.578;-0.066;2022-09-13T04:41:25;27.00;99.90
43183;DHT22;28802;38.578;-0.066;2022-09-13T04:43:51;26.90;99.90
43183;DHT22;28802;38.578;-0.066;2022-09-13T04:46:17;27.00;99.90
43183;DHT22;28802;38.578;-0.066;2022-09-13T04:48:50;27.10;99.90
43183;DHT22;28802;38.578;-0.066;2022-09-13T04:51:17;27.10;99.90
43183;DHT22;28802;38.578;-0.066;2022-09-13T04:53:46;27.10;99.90
43183;DHT22;28802;38.578;-0.066;2022-09-13T04:56:12;27.10;99.90
43183;DHT22;28802;38.578;-0.066;2022-09-13T04:58:40;27.10;99.90
43183;DHT22;28802;38.578;-0.066;2022-09-13T05:01:08;27.10;99.90
43183;DHT22;28802;38.578;-0.066;2022-09-13T05:03:34;27.20;99.90
43183;DHT22;28802;38.578;-0.066;2022-09-13T05:06:09;27.10;99.90
43183;DHT22;28802;38.578;-0.066;2022-09-13T05:08:36;27.20;99.90
43183;DHT22;28802;38.578;-0.066;2022-09-13T05:11:02;27.10;99.90
43183;DHT22;28802;38.578;-0.066;2022-09-13T05:13:29;27.10;99.90
43183;DHT22;28802;38.578;-0.066;2022-09-13T05:16:00;27.10;99.90
43183;DHT22;28802;38.578;-0.066;2022-09-13T05:18:31;27.10;99.90
43183;DHT22;28802;38.578;-0.066;2022-09-13T05:20:59;27.00;99.90
43183;DHT22;28802;38.578;-0.066;2022-09-13T05:23:26;27.00;99.90
43183;DHT22;28802;38.578;-0.066;2022-09-13T05:26:04;27.00;99.90
43183;DHT22;28802;38.578;-0.066;2022-09-13T05:28:32;27.00;99.90
43183;DHT22;28802;38.578;-0.066;2022-09-13T05:31:07;27.00;99.90
43183;DHT22;28802;38.578;-0.066;2022-09-13T05:33:35;27.00;99.90
43183;DHT22;28802;38.578;-0.066;2022-09-13T05:36:01;26.90;99.90
43183;DHT22;28802;38.578;-0.066;2022-09-13T05:38:27;26.90;99.90
43183;DHT22;28802;38.578;-0.066;2022-09-13T05:40:57;27.10;99.90
43183;DHT22;28802;38.578;-0.066;2022-09-13T05:43:25;27.00;99.90
43183;DHT22;28802;38.578;-0.066;2022-09-13T05:45:51;27.10;99.90
43183;DHT22;28802;38.578;-0.066;2022-09-13T05:48:24;27.20;99.90
43183;DHT22;28802;38.578;-0.066;2022-09-13T05:50:50;27.20;99.90
43183;DHT22;28802;38.578;-0.066;2022-09-13T05:53:16;27.40;99.90
43183;DHT22;28802;38.578;-0.066;2022-09-13T05:55:41;27.60;99.90
43183;DHT22;28802;38.578;-0.066;2022-09-13T05:58:07;27.60;99.90
43183;DHT22;28802;38.578;-0.066;2022-09-13T06:00:33;27.70;99.90
43183;DHT22;28802;38.578;-0.066;2022-09-13T06:02:59;27.60;99.90
43183;DHT22;28802;38.578;-0.066;2022-09-13T06:05:25;27.50;99.90
43183;DHT22;28802;38.578;-0.066;2022-09-13T06:07:51;27.60;99.90
43183;DHT22;28802;38.578;-0.066;2022-09-13T06:10:17;27.70;99.90
43183;DHT22;28802;38.578;-0.066;2022-09-13T06:12:43;27.60;99.90
43183;DHT22;28802;38.578;-0.066;2022-09-13T06:15:11;27.50;99.90
43183;DHT22;28802;38.578;-0.066;2022-09-13T06:17:38;27.60;99.90
43183;DHT22;28802;38.578;-0.066;2022-09-13T06:20:04;27.70;99.90
43183;DHT22;28802;38.578;-0.066;2022-09-13T06:22:30;27.70;99.90
43183;DHT22;28802;38.578;-0.066;2022-09-13T06:25:00;27.60;99.90
43183;DHT22;28802;38.578;-0.066;2022-09-13T06:27:28;27.50;99.90
43183;DHT22;28802;38.578;-0.066;2022-09-13T06:29:54;27.50;99.90
43183;DHT22;28802;38.578;-0.066;2022-09-13T06:32:20;27.40;99.90
43183;DHT22;28802;38.578;-0.066;2022-09-13T06:34:46;27.30;99.90
43183;DHT22;28802;38.578;-0.066;2022-09-13T06:37:12;27.30;99.90
43183;DHT22;28802;38.578;-0.066;2022-09-13T06:39:38;27.30;99.90
43183;DHT22;28802;38.578;-0.066;2022-09-13T06:42:04;27.50;99.90
43183;DHT22;28802;38.578;-0.066;2022-09-13T06:44:38;27.30;99.90
43183;DHT22;28802;38.578;-0.066;2022-09-13T06:47:04;27.30;99.90
43183;DHT22;28802;38.578;-0.066;2022-09-13T06:49:30;27.30;99.90
43183;DHT22;28802;38.578;-0.066;2022-09-13T06:51:56;27.30;99.90
43183;DHT22;28802;38.578;-0.066;2022-09-13T06:54:22;27.60;99.90
43183;DHT22;28802;38.578;-0.066;2022-09-13T06:56:48;27.80;99.90
43183;DHT22;28802;38.578;-0.066;2022-09-13T06:59:14;28.00;99.90
43183;DHT22;28802;38.578;-0.066;2022-09-13T07:01:41;28.10;99.90
43183;DHT22;28802;38.578;-0.066;2022-09-13T07:04:15;28.00;99.90
43183;DHT22;28802;38.578;-0.066;2022-09-13T07:06:43;28.20;99.90
43183;DHT22;28802;38.578;-0.066;2022-09-13T07:09:15;28.50;99.90
43183;DHT22;28802;38.578;-0.066;2022-09-13T07:11:44;28.50;99.90
43183;DHT22;28802;38.578;-0.066;2022-09-13T07:14:17;28.60;99.90
43183;DHT22;28802;38.578;-0.066;2022-09-13T07:16:44;28.80;99.90
43183;DHT22;28802;38.578;-0.066;2022-09-13T07:19:22;29.00;99.90
43183;DHT22;28802;38.578;-0.066;2022-09-13T07:21:49;29.00;99.90
43183;DHT22;28802;38.578;-0.066;2022-09-13T07:24:19;28.80;99.90
43183;DHT22;28802;38.578;-0.066;2022-09-13T07:26:46;28.70;99.90
43183;DHT22;28802;38.578;-0.066;2022-09-13T07:29:15;28.80;99.90
43183;DHT22;28802;38.578;-0.066;2022-09-13T07:31:43;28.90;99.90
43183;DHT22;28802;38.578;-0.066;2022-09-13T07:34:17;29.00;99.90
43183;DHT22;28802;38.578;-0.066;2022-09-13T07:36:43;28.90;99.90
43183;DHT22;28802;38.578;-0.066;2022-09-13T07:39:12;28.80;99.90
43183;DHT22;28802;38.578;-0.066;2022-09-13T07:41:38;28.70;99.90
43183;DHT22;28802;38.578;-0.066;2022-09-13T07:44:04;28.70;99.90
43183;DHT22;28802;38.578;-0.066;2022-09-13T07:46:34;28.80;99.90
43183;DHT22;28802;38.578;-0.066;2022-09-13T07:49:10;28.70;99.90
43183;DHT22;28802;38.578;-0.066;2022-09-13T07:51:38;28.60;99.90
43183;DHT22;28802;38.578;-0.066;2022-09-13T07:54:08;28.40;99.90
43183;DHT22;28802;38.578;-0.066;2022-09-13T07:56:36;28.40;99.90
43183;DHT22;28802;38.578;-0.066;2022-09-13T07:59:05;28.40;99.90
43183;DHT22;28802;38.578;-0.066;2022-09-13T08:01:39;28.40;99.90
43183;DHT22;28802;38.578;-0.066;2022-09-13T08:04:25;28.50;99.90
43183;DHT22;28802;38.578;-0.066;2022-09-13T08:06:51;28.50;99.90
43183;DHT22;28802;38.578;-0.066;2022-09-13T08:09:17;28.60;99.90
43183;DHT22;28802;38.578;-0.066;2022-09-13T08:11:46;28.70;99.90
43183;DHT22;28802;38.578;-0.066;2022-09-13T08:14:14;28.90;99.90
43183;DHT22;28802;38.578;-0.066;2022-09-13T08:16:40;29.10;99.90
43183;DHT22;28802;38.578;-0.066;2022-09-13T08:19:08;29.60;99.90
43183;DHT22;28802;38.578;-0.066;2022-09-13T08:21:39;29.90;99.90
43183;DHT22;28802;38.578;-0.066;2022-09-13T08:24:07;30.20;99.90
43183;DHT22;28802;38.578;-0.066;2022-09-13T08:26:34;30.30;99.90
43183;DHT22;28802;38.578;-0.066;2022-09-13T08:29:03;30.10;99.90
43183;DHT22;28802;38.578;-0.066;2022-09-13T08:31:29;29.90;99.90
43183;DHT22;28802;38.578;-0.066;2022-09-13T08:33:55;29.70;99.90
43183;DHT22;28802;38.578;-0.066;2022-09-13T08:36:23;29.60;99.90
43183;DHT22;28802;38.578;-0.066;2022-09-13T08:38:54;29.60;99.90
43183;DHT22;28802;38.578;-0.066;2022-09-13T08:49:43;29.50;99.90
43183;DHT22;28802;38.578;-0.066;2022-09-13T08:52:37;29.30;99.90
43183;DHT22;28802;38.578;-0.066;2022-09-13T08:58:28;29.30;99.90
43183;DHT22;28802;38.578;-0.066;2022-09-13T09:03:56;29.50;99.90
43183;DHT22;28802;38.578;-0.066;2022-09-13T09:06:23;29.70;99.90
43183;DHT22;28802;38.578;-0.066;2022-09-13T09:09:04;29.90;99.90
43183;DHT22;28802;38.578;-0.066;2022-09-13T09:14:32;30.00;99.90
43183;DHT22;28802;38.578;-0.066;2022-09-13T09:19:53;30.30;99.90
43183;DHT22;28802;38.578;-0.066;2022-09-13T09:22:22;30.20;99.90
43183;DHT22;28802;38.578;-0.066;2022-09-13T09:24:53;30.20;99.90
43183;DHT22;28802;38.578;-0.066;2022-09-13T09:27:21;30.30;99.90
43183;DHT22;28802;38.578;-0.066;2022-09-13T09:29:50;30.50;99.90
43183;DHT22;28802;38.578;-0.066;2022-09-13T09:37:40;30.10;99.90
43183;DHT22;28802;38.578;-0.066;2022-09-13T09:40:11;30.00;99.90
43183;DHT22;28802;38.578;-0.066;2022-09-13T09:42:46;29.90;99.90
43183;DHT22;28802;38.578;-0.066;2022-09-13T09:47:46;29.60;99.90
43183;DHT22;28802;38.578;-0.066;2022-09-13T09:50:26;29.50;99.90
43183;DHT22;28802;38.578;-0.066;2022-09-13T09:58:49;29.50;99.90
43183;DHT22;28802;38.578;-0.066;2022-09-13T10:01:27;29.80;99.90
43183;DHT22;28802;38.578;-0.066;2022-09-13T10:06:37;30.30;99.90
43183;DHT22;28802;38.578;-0.066;2022-09-13T10:09:18;30.50;99.90
43183;DHT22;28802;38.578;-0.066;2022-09-13T10:11:55;30.60;99.90
43183;DHT22;28802;38.578;-0.066;2022-09-13T10:14:41;30.50;99.90
43183;DHT22;28802;38.578;-0.066;2022-09-13T10:17:26;30.20;99.90
43183;DHT22;28802;38.578;-0.066;2022-09-13T10:22:37;29.90;99.90
43183;DHT22;28802;38.578;-0.066;2022-09-13T10:25:23;29.60;99.90
43183;DHT22;28802;38.578;-0.066;2022-09-13T10:27:57;29.50;99.90
43183;DHT22;28802;38.578;-0.066;2022-09-13T10:30:55;29.40;99.90
43183;DHT22;28802;38.578;-0.066;2022-09-13T10:35:53;29.40;99.90
43183;DHT22;28802;38.578;-0.066;2022-09-13T10:38:27;29.50;99.90
43183;DHT22;28802;38.578;-0.066;2022-09-13T10:40:54;29.60;99.90
43183;DHT22;28802;38.578;-0.066;2022-09-13T10:43:22;29.70;99.90
43183;DHT22;28802;38.578;-0.066;2022-09-13T10:45:50;29.90;99.90
43183;DHT22;28802;38.578;-0.066;2022-09-13T10:48:17;29.90;99.90
43183;DHT22;28802;38.578;-0.066;2022-09-13T10:55:59;30.40;99.90
43183;DHT22;28802;38.578;-0.066;2022-09-13T10:58:27;30.50;99.90
43183;DHT22;28802;38.578;-0.066;2022-09-13T11:01:12;30.50;99.90
43183;DHT22;28802;38.578;-0.066;2022-09-13T11:06:51;30.10;99.90
43183;DHT22;28802;38.578;-0.066;2022-09-13T11:14:53;29.20;99.90
43183;DHT22;28802;38.578;-0.066;2022-09-13T11:23:36;29.40;99.90
43183;DHT22;28802;38.578;-0.066;2022-09-13T11:26:23;29.40;99.90
43183;DHT22;28802;38.578;-0.066;2022-09-13T11:50:08;29.40;99.90
43183;DHT22;28802;38.578;-0.066;2022-09-13T11:55:53;30.00;99.90
43183;DHT22;28802;38.578;-0.066;2022-09-13T11:59:06;30.40;99.90
43183;DHT22;28802;38.578;-0.066;2022-09-13T12:01:08;30.60;99.90
43183;DHT22;28802;38.578;-0.066;2022-09-13T12:08:49;30.50;99.90
43183;DHT22;28802;38.578;-0.066;2022-09-13T12:11:35;30.40;99.90
43183;DHT22;28802;38.578;-0.066;2022-09-13T12:14:11;30.70;99.90
43183;DHT22;28802;38.578;-0.066;2022-09-13T12:16:46;30.60;99.90
43183;DHT22;28802;38.578;-0.066;2022-09-13T12:20:01;30.50;99.90
43183;DHT22;28802;38.578;-0.066;2022-09-13T12:22:02;30.60;99.90
43183;DHT22;28802;38.578;-0.066;2022-09-13T12:24:44;30.90;99.90
43183;DHT22;28802;38.578;-0.066;2022-09-13T12:27:22;30.80;99.90
43183;DHT22;28802;38.578;-0.066;2022-09-13T12:29:55;30.80;99.90
43183;DHT22;28802;38.578;-0.066;2022-09-13T12:32:22;30.70;99.90
43183;DHT22;28802;38.578;-0.066;2022-09-13T12:43:09;30.30;99.90
43183;DHT22;28802;38.578;-0.066;2022-09-13T13:01:51;29.60;99.90
43183;DHT22;28802;38.578;-0.066;2022-09-13T13:04:24;29.40;99.90
43183;DHT22;28802;38.578;-0.066;2022-09-13T13:07:06;29.20;99.90
43183;DHT22;28802;38.578;-0.066;2022-09-13T13:09:47;29.10;99.90
43183;DHT22;28802;38.578;-0.066;2022-09-13T13:12:34;29.10;99.90
43183;DHT22;28802;38.578;-0.066;2022-09-13T13:15:53;29.10;99.90
43183;DHT22;28802;38.578;-0.066;2022-09-13T13:17:54;29.00;99.90
43183;DHT22;28802;38.578;-0.066;2022-09-13T13:42:10;28.60;99.90
43183;DHT22;28802;38.578;-0.066;2022-09-13T13:59:48;28.50;99.90
43183;DHT22;28802;38.578;-0.066;2022-09-13T14:02:17;28.60;99.90
43183;DHT22;28802;38.578;-0.066;2022-09-13T14:16:59;28.80;99.90
43183;DHT22;28802;38.578;-0.066;2022-09-13T14:19:38;28.60;99.90
43183;DHT22;28802;38.578;-0.066;2022-09-13T14:22:06;28.50;99.90
43183;DHT22;28802;38.578;-0.066;2022-09-13T14:24:37;28.50;99.90
43183;DHT22;28802;38.578;-0.066;2022-09-13T14:27:04;28.50;99.90
43183;DHT22;28802;38.578;-0.066;2022-09-13T14:29:30;28.40;99.90
43183;DHT22;28802;38.578;-0.066;2022-09-13T14:32:05;28.50;99.90
43183;DHT22;28802;38.578;-0.066;2022-09-13T14:34:34;28.50;99.90
43183;DHT22;28802;38.578;-0.066;2022-09-13T14:37:04;28.40;99.90
43183;DHT22;28802;38.578;-0.066;2022-09-13T14:39:31;28.30;99.90
43183;DHT22;28802;38.578;-0.066;2022-09-13T14:44:26;28.30;99.90
43183;DHT22;28802;38.578;-0.066;2022-09-13T14:47:07;28.30;99.90
43183;DHT22;28802;38.578;-0.066;2022-09-13T14:49:42;28.40;99.90
43183;DHT22;28802;38.578;-0.066;2022-09-13T14:52:25;28.60;99.90
43183;DHT22;28802;38.578;-0.066;2022-09-13T14:54:56;28.70;99.90
43183;DHT22;28802;38.578;-0.066;2022-09-13T14:57:29;28.80;99.90
43183;DHT22;28802;38.578;-0.066;2022-09-13T15:00:14;28.80;99.90
43183;DHT22;28802;38.578;-0.066;2022-09-13T15:02:53;28.80;99.90
43183;DHT22;28802;38.578;-0.066;2022-09-13T15:05:23;28.80;99.90
43183;DHT22;28802;38.578;-0.066;2022-09-13T15:07:49;28.70;99.90
43183;DHT22;28802;38.578;-0.066;2022-09-13T15:10:31;28.70;99.90
43183;DHT22;28802;38.578;-0.066;2022-09-13T15:15:41;28.70;99.90
43183;DHT22;28802;38.578;-0.066;2022-09-13T15:20:59;28.70;99.90
43183;DHT22;28802;38.578;-0.066;2022-09-13T15:23:31;28.70;99.90
43183;DHT22;28802;38.578;-0.066;2022-09-13T15:26:05;28.60;99.90
43183;DHT22;28802;38.578;-0.066;2022-09-13T15:31:11;28.70;99.90
43183;DHT22;28802;38.578;-0.066;2022-09-13T15:33:44;28.70;99.90
43183;DHT22;28802;38.578;-0.066;2022-09-13T15:38:58;28.60;99.90
43183;DHT22;28802;38.578;-0.066;2022-09-13T15:41:31;28.60;99.90
43183;DHT22;28802;38.578;-0.066;2022-09-13T15:43:58;28.60;99.90
43183;DHT22;28802;38.578;-0.066;2022-09-13T15:46:25;28.70;99.90
43183;DHT22;28802;38.578;-0.066;2022-09-13T15:49:14;28.80;99.90
43183;DHT22;28802;38.578;-0.066;2022-09-13T15:51:41;28.70;99.90
43183;DHT22;28802;38.578;-0.066;2022-09-13T15:54:16;28.80;99.90
43183;DHT22;28802;38.578;-0.066;2022-09-13T15:56:45;28.80;99.90
43183;DHT22;28802;38.578;-0.066;2022-09-13T15:59:16;28.90;99.90
43183;DHT22;28802;38.578;-0.066;2022-09-13T16:01:43;28.90;99.90
43183;DHT22;28802;38.578;-0.066;2022-09-13T16:04:10;28.80;99.90
43183;DHT22;28802;38.578;-0.066;2022-09-13T16:06:36;28.80;99.90
43183;DHT22;28802;38.578;-0.066;2022-09-13T16:09:21;28.80;99.90
43183;DHT22;28802;38.578;-0.066;2022-09-13T16:11:48;29.00;99.90
43183;DHT22;28802;38.578;-0.066;2022-09-13T16:14:14;29.00;99.90
43183;DHT22;28802;38.578;-0.066;2022-09-13T16:16:40;29.00;99.90
43183;DHT22;28802;38.578;-0.066;2022-09-13T16:19:14;28.90;99.90
43183;DHT22;28802;38.578;-0.066;2022-09-13T16:21:39;28.90;99.90
43183;DHT22;28802;38.578;-0.066;2022-09-13T16:24:05;28.90;99.90
43183;DHT22;28802;38.578;-0.066;2022-09-13T16:26:32;28.80;99.90
43183;DHT22;28802;38.578;-0.066;2022-09-13T16:28:58;28.80;99.90
43183;DHT22;28802;38.578;-0.066;2022-09-13T16:31:24;28.80;99.90
43183;DHT22;28802;38.578;-0.066;2022-09-13T16:33:50;28.80;99.90
43183;DHT22;28802;38.578;-0.066;2022-09-13T16:36:16;28.80;99.90
43183;DHT22;28802;38.578;-0.066;2022-09-13T16:38:43;28.80;99.90
43183;DHT22;28802;38.578;-0.066;2022-09-13T16:41:09;28.90;99.90
43183;DHT22;28802;38.578;-0.066;2022-09-13T16:43:34;28.90;99.90
43183;DHT22;28802;38.578;-0.066;2022-09-13T16:46:08;29.10;99.90
43183;DHT22;28802;38.578;-0.066;2022-09-13T16:48:34;29.10;99.90
43183;DHT22;28802;38.578;-0.066;2022-09-13T16:51:09;29.10;99.90
43183;DHT22;28802;38.578;-0.066;2022-09-13T16:53:37;29.10;99.90
43183;DHT22;28802;38.578;-0.066;2022-09-13T16:56:12;29.10;99.90
43183;DHT22;28802;38.578;-0.066;2022-09-13T16:58:39;29.30;99.90
43183;DHT22;28802;38.578;-0.066;2022-09-13T17:01:07;29.20;99.90
43183;DHT22;28802;38.578;-0.066;2022-09-13T17:03:33;29.00;99.90
43183;DHT22;28802;38.578;-0.066;2022-09-13T17:06:02;29.00;99.90
43183;DHT22;28802;38.578;-0.066;2022-09-13T17:08:29;29.00;99.90
43183;DHT22;28802;38.578;-0.066;2022-09-13T17:10:55;29.00;99.90
43183;DHT22;28802;38.578;-0.066;2022-09-13T17:13:22;29.00;99.90
43183;DHT22;28802;38.578;-0.066;2022-09-13T17:15:49;29.00;99.90
43183;DHT22;28802;38.578;-0.066;2022-09-13T17:18:15;29.00;99.90
43183;DHT22;28802;38.578;-0.066;2022-09-13T17:20:49;29.00;99.90
43183;DHT22;28802;38.578;-0.066;2022-09-13T17:23:15;29.00;99.90
43183;DHT22;28802;38.578;-0.066;2022-09-13T17:25:50;29.00;99.90
43183;DHT22;28802;38.578;-0.066;2022-09-13T17:28:17;29.00;99.90
43183;DHT22;28802;38.578;-0.066;2022-09-13T17:30:45;29.00;99.90
43183;DHT22;28802;38.578;-0.066;2022-09-13T17:33:11;29.00;99.90
43183;DHT22;28802;38.578;-0.066;2022-09-13T17:35:37;29.00;99.90
43183;DHT22;28802;38.578;-0.066;2022-09-13T17:38:03;29.00;99.90
43183;DHT22;28802;38.578;-0.066;2022-09-13T17:40:30;29.00;99.90
43183;DHT22;28802;38.578;-0.066;2022-09-13T17:42:56;29.00;99.90
43183;DHT22;28802;38.578;-0.066;2022-09-13T17:45:23;29.00;99.90
43183;DHT22;28802;38.578;-0.066;2022-09-13T17:47:52;29.00;99.90
43183;DHT22;28802;38.578;-0.066;2022-09-13T17:50:18;29.00;99.90
43183;DHT22;28802;38.578;-0.066;2022-09-13T17:52:44;29.00;99.90
43183;DHT22;28802;38.578;-0.066;2022-09-13T17:55:14;29.00;99.90
43183;DHT22;28802;38.578;-0.066;2022-09-13T17:57:40;29.00;99.90
43183;DHT22;28802;38.578;-0.066;2022-09-13T18:00:06;29.00;99.90
43183;DHT22;28802;38.578;-0.066;2022-09-13T18:02:37;29.00;99.90
43183;DHT22;28802;38.578;-0.066;2022-09-13T18:05:03;28.90;99.90
43183;DHT22;28802;38.578;-0.066;2022-09-13T18:07:29;28.90;99.90
43183;DHT22;28802;38.578;-0.066;2022-09-13T18:09:55;28.90;99.90
43183;DHT22;28802;38.578;-0.066;2022-09-13T18:12:22;28.90;99.90
43183;DHT22;28802;38.578;-0.066;2022-09-13T18:14:48;28.90;99.90
43183;DHT22;28802;38.578;-0.066;2022-09-13T18:17:14;28.90;99.90
43183;DHT22;28802;38.578;-0.066;2022-09-13T18:19:40;28.90;99.90
43183;DHT22;28802;38.578;-0.066;2022-09-13T18:22:09;28.80;99.90
43183;DHT22;28802;38.578;-0.066;2022-09-13T18:24:35;28.80;99.90
43183;DHT22;28802;38.578;-0.066;2022-09-13T18:27:02;28.80;99.90
43183;DHT22;28802;38.578;-0.066;2022-09-13T18:29:28;28.80;99.90
43183;DHT22;28802;38.578;-0.066;2022-09-13T18:31:57;28.80;99.90
43183;DHT22;28802;38.578;-0.066;2022-09-13T18:34:23;28.80;99.90
43183;DHT22;28802;38.578;-0.066;2022-09-13T18:36:49;28.70;99.90
43183;DHT22;28802;38.578;-0.066;2022-09-13T18:39:17;28.70;99.90
43183;DHT22;28802;38.578;-0.066;2022-09-13T18:41:44;28.80;99.90
43183;DHT22;28802;38.578;-0.066;2022-09-13T18:44:12;28.70;99.90
43183;DHT22;28802;38.578;-0.066;2022-09-13T18:46:39;28.80;99.90
43183;DHT22;28802;38.578;-0.066;2022-09-13T18:49:05;28.80;99.90
43183;DHT22;28802;38.578;-0.066;2022-09-13T18:51:36;28.80;99.90
43183;DHT22;28802;38.578;-0.066;2022-09-13T18:54:04;28.80;99.90
43183;DHT22;28802;38.578;-0.066;2022-09-13T18:56:30;28.70;99.90
43183;DHT22;28802;38.578;-0.066;2022-09-13T18:58:59;28.70;99.90
43183;DHT22;28802;38.578;-0.066;2022-09-13T19:01:28;28.70;99.90
43183;DHT22;28802;38.578;-0.066;2022-09-13T19:03:59;28.60;99.90
43183;DHT22;28802;38.578;-0.066;2022-09-13T19:06:32;28.60;99.90
43183;DHT22;28802;38.578;-0.066;2022-09-13T19:08:59;28.70;99.90
43183;DHT22;28802;38.578;-0.066;2022-09-13T19:11:27;28.70;99.90
43183;DHT22;28802;38.578;-0.066;2022-09-13T19:13:56;28.60;99.90
43183;DHT22;28802;38.578;-0.066;2022-09-13T19:16:22;28.60;99.90
43183;DHT22;28802;38.578;-0.066;2022-09-13T19:18:48;28.70;99.90
43183;DHT22;28802;38.578;-0.066;2022-09-13T19:21:21;28.60;99.90
43183;DHT22;28802;38.578;-0.066;2022-09-13T19:23:48;28.50;99.90
43183;DHT22;28802;38.578;-0.066;2022-09-13T19:26:20;28.40;99.90